Time;durP1;ratioP1;P1;durP2;ratioP2;P2;SDS_P1;SDS_P2;PMS_P1;PMS_P2;Temp;Humidity;BMP_temperature;BMP_pressure;BME280_temperature;BME280_humidity;BME280_pressure;Samples;Min_cycle;Max_cycle;Signal;HPM_P1;HPM_P2
2021/12/25 00:00:55;;;;;;;4.09;3.11;;;;;;;-0.04;87.32;99519.67;458871;114;930554;-72
2021/12/25 00:02:04;;;;;;;5.34;3.28;;;;;;;-0.04;87.31;99508.95;460181;114;922712;-72
2021/12/25 00:03:04;;;;;;;4.30;3.16;;;;;;;-0.03;87.35;99515.98;459293;114;922961;-72
2021/12/25 00:04:08;;;;;;;3.25;2.15;;;;;;;-0.02;87.35;99511.47;458743;114;922531;-72
2021/12/25 00:05:13;;;;;;;3.19;2.07;;;;;;;-0.03;87.36;99507.95;457943;113;922700;-72
2021/12/25 00:06:18;;;;;;;2.07;1.38;;;;;;;0.00;87.40;99525.55;458424;114;922559;-72
2021/12/25 00:07:21;;;;;;;2.37;1.65;;;;;;;0.00;87.40;99520.98;460005;113;923029;-72
2021/12/25 00:08:27;;;;;;;2.98;2.41;;;;;;;0.02;87.43;99522.67;460416;114;922866;-72
2021/12/25 00:09:30;;;;;;;3.80;2.22;;;;;;;0.03;87.45;99519.83;458248;114;930376;-72
2021/12/25 00:10:33;;;;;;;2.24;1.85;;;;;;;0.04;87.47;99518.82;459169;113;923051;-71
2021/12/25 00:11:36;;;;;;;2.52;1.67;;;;;;;0.05;87.50;99520.50;458762;114;922573;-71
2021/12/25 00:12:40;;;;;;;2.04;1.49;;;;;;;0.06;87.50;99524.82;456340;114;923220;-72
2021/12/25 00:13:43;;;;;;;1.92;1.18;;;;;;;0.06;87.54;99522.14;459317;114;923050;-72
2021/12/25 00:14:47;;;;;;;2.23;1.64;;;;;;;0.07;87.54;99526.50;460836;114;922631;-72
2021/12/25 00:15:51;;;;;;;2.25;1.66;;;;;;;0.09;87.53;99523.66;459803;114;922768;-72
2021/12/25 00:16:54;;;;;;;2.21;1.46;;;;;;;0.09;87.57;99519.13;457651;114;922533;-71
2021/12/25 00:17:57;;;;;;;3.62;2.40;;;;;;;0.10;87.61;99520.81;458492;114;922565;-72
2021/12/25 00:19:00;;;;;;;2.68;1.81;;;;;;;0.12;87.62;99515.25;459949;114;922619;-72
2021/12/25 00:20:04;;;;;;;2.19;1.45;;;;;;;0.13;87.63;99519.61;461036;114;922645;-72
2021/12/25 00:21:08;;;;;;;2.69;2.13;;;;;;;0.13;87.66;99515.09;458812;114;922999;-72
2021/12/25 00:22:12;;;;;;;2.98;1.62;;;;;;;0.14;87.67;99523.97;459620;114;923283;-72
2021/12/25 00:23:15;;;;;;;3.25;2.28;;;;;;;0.14;87.70;99516.77;460443;114;922667;-73
2021/12/25 00:24:20;;;;;;;3.02;1.84;;;;;;;0.16;87.69;99522.80;459257;114;922624;-72
2021/12/25 00:25:23;;;;;;;3.02;1.81;;;;;;;0.17;87.72;99529.80;457999;114;923005;-72
2021/12/25 00:26:42;;;;;;;3.56;1.79;;;;;;;0.17;87.74;99524.44;457657;114;930226;-72
2021/12/25 00:28:04;;;;;;;1.47;1.07;;;;;;;0.18;87.79;99539.52;459838;114;922594;-72
2021/12/25 00:29:15;;;;;;;1.21;0.99;;;;;;;0.21;87.81;99538.35;459041;114;923098;-72
2021/12/25 00:30:16;;;;;;;1.29;1.03;;;;;;;0.21;87.87;99531.15;456506;114;922765;-72
2021/12/25 00:33:50;;;;;;;1.51;1.04;;;;;;;0.23;87.83;99528.27;459598;114;922592;-72
2021/12/25 00:34:39;;;;;;;1.28;0.95;;;;;;;0.25;87.86;99526.27;456136;114;922711;-71
2021/12/25 00:35:43;;;;;;;1.29;1.08;;;;;;;0.26;87.87;99522.58;460566;114;922720;-71
2021/12/25 00:36:46;;;;;;;0.99;0.86;;;;;;;0.27;87.91;99522.41;457774;114;930297;-71
2021/12/25 00:37:51;;;;;;;1.17;0.97;;;;;;;0.28;87.90;99526.73;460704;114;922701;-72
2021/12/25 00:38:55;;;;;;;1.41;0.94;;;;;;;0.29;87.87;99525.73;460331;114;922448;-72
2021/12/25 00:39:58;;;;;;;1.58;1.23;;;;;;;0.30;87.88;99527.41;458447;114;923187;-72
2021/12/25 00:41:02;;;;;;;1.21;0.90;;;;;;;0.31;87.88;99534.45;459617;114;930775;-72
2021/12/25 00:42:07;;;;;;;1.53;1.04;;;;;;;0.33;87.91;99529.73;461933;114;922594;-72
2021/12/25 00:43:10;;;;;;;1.33;1.21;;;;;;;0.34;87.94;99527.88;460171;114;930401;-72
2021/12/25 00:44:14;;;;;;;1.60;1.21;;;;;;;0.35;87.95;99514.31;458758;114;922635;-70
2021/12/25 00:45:17;;;;;;;1.58;1.24;;;;;;;0.36;87.94;99521.35;459582;114;922590;-72
2021/12/25 00:46:22;;;;;;;1.55;1.12;;;;;;;0.38;87.96;99519.34;460894;114;923621;-72
2021/12/25 00:47:27;;;;;;;1.57;1.02;;;;;;;0.39;87.94;99517.47;460180;114;922916;-72
2021/12/25 00:48:31;;;;;;;1.06;0.89;;;;;;;0.41;87.92;99518.14;457082;114;923011;-72
2021/12/25 00:49:36;;;;;;;1.41;1.30;;;;;;;0.41;87.89;99515.45;458288;114;922807;-71
2021/12/25 00:50:39;;;;;;;1.32;1.14;;;;;;;0.44;87.88;99525.01;457835;114;923391;-73
2021/12/25 00:51:42;;;;;;;2.22;1.35;;;;;;;0.44;87.89;99511.60;459886;114;930369;-73
2021/12/25 00:52:46;;;;;;;1.76;1.26;;;;;;;0.46;87.93;99517.60;457942;114;922736;-72
2021/12/25 00:53:50;;;;;;;1.47;1.37;;;;;;;0.47;87.92;99512.07;458977;114;922596;-72
2021/12/25 00:54:54;;;;;;;1.65;1.31;;;;;;;0.51;87.96;99508.02;459191;114;922691;-72
2021/12/25 00:55:58;;;;;;;2.22;1.54;;;;;;;0.51;87.96;99508.02;458535;114;930168;-72
2021/12/25 00:57:02;;;;;;;1.79;1.20;;;;;;;0.52;87.95;99504.33;460669;114;922573;-72
2021/12/25 00:58:06;;;;;;;1.94;1.14;;;;;;;0.54;87.97;99509.53;458335;114;922554;-71
2021/12/25 00:59:09;;;;;;;2.12;1.31;;;;;;;0.56;87.99;99510.16;459091;114;924719;-73
2021/12/25 01:00:15;;;;;;;2.16;1.72;;;;;;;0.58;87.93;99514.35;457748;114;922620;-73
2021/12/25 01:01:18;;;;;;;1.78;1.54;;;;;;;0.59;87.91;99510.66;444113;118;923041;-73
2021/12/25 01:02:22;;;;;;;1.58;1.34;;;;;;;0.60;87.90;99509.66;441656;118;922620;-73
2021/12/25 01:03:25;;;;;;;1.61;1.31;;;;;;;0.62;87.92;99512.14;442857;118;922948;-73
2021/12/25 01:04:29;;;;;;;2.52;1.76;;;;;;;0.63;87.91;99516.50;442561;118;922513;-72
2021/12/25 01:05:33;;;;;;;2.39;1.19;;;;;;;0.64;87.89;99510.97;445228;116;922525;-72
2021/12/25 01:06:37;;;;;;;2.42;1.71;;;;;;;0.66;87.89;99522.34;449039;116;922659;-73
2021/12/25 01:07:42;;;;;;;1.80;1.40;;;;;;;0.69;87.87;99515.80;451583;116;922644;-72
2021/12/25 01:08:47;;;;;;;2.14;1.68;;;;;;;0.70;87.84;99515.63;441567;118;922770;-72
2021/12/25 01:09:53;;;;;;;2.19;1.35;;;;;;;0.71;87.79;99509.25;440483;118;922574;-72
2021/12/25 01:10:56;;;;;;;1.62;1.52;;;;;;;0.73;87.78;99517.09;441547;118;923325;-72
2021/12/25 01:12:01;;;;;;;2.08;1.24;;;;;;;0.75;87.85;99517.77;442216;118;922686;-72
2021/12/25 01:21:32;;;;;;;2.44;1.94;;;;;;;0.87;87.99;99527.09;451808;116;922840;-73
2021/12/25 01:25:05;;;;;;;1.97;1.66;;;;;;;0.90;88.13;99548.18;450796;115;922636;-73
2021/12/25 01:26:13;;;;;;;3.95;2.29;;;;;;;0.92;88.13;99548.84;453451;116;922582;-74
2021/12/25 01:31:25;;;;;;;2.73;2.35;;;;;;;0.98;88.22;99542.77;431778;120;922865;-72
2021/12/25 01:34:09;;;;;;;3.72;2.52;;;;;;;1.01;88.17;99545.08;433492;120;922819;-72
2021/12/25 01:39:42;;;;;;;4.19;3.13;;;;;;;1.03;87.97;99548.44;442530;118;922662;-73
2021/12/25 01:47:54;;;;;;;4.67;3.98;;;;;;;1.07;88.06;99546.22;438348;118;922929;-72
2021/12/25 01:48:57;;;;;;;6.40;4.61;;;;;;;1.08;88.05;99542.52;438744;120;922613;-74
2021/12/25 01:50:03;;;;;;;4.54;4.13;;;;;;;1.07;88.04;99530.95;438427;118;923337;-73
2021/12/25 01:51:06;;;;;;;5.39;4.33;;;;;;;1.09;88.03;99533.46;442612;118;922632;-73
2021/12/25 01:52:10;;;;;;;4.56;4.17;;;;;;;1.09;88.06;99531.62;438793;119;922500;-73
2021/12/25 01:53:13;;;;;;;4.76;4.26;;;;;;;1.11;88.06;99537.63;439010;120;930643;-73
2021/12/25 01:54:16;;;;;;;5.11;4.28;;;;;;;1.12;87.99;99527.72;439489;118;930775;-73
2021/12/25 01:55:23;;;;;;;6.44;5.28;;;;;;;1.13;88.02;99524.02;442154;118;923297;-72
2021/12/25 01:56:27;;;;;;;4.97;4.49;;;;;;;1.14;87.98;99531.91;442266;118;922670;-73
2021/12/25 01:57:31;;;;;;;5.50;4.97;;;;;;;1.16;87.95;99535.23;439873;118;922672;-73
2021/12/25 01:58:36;;;;;;;6.45;4.58;;;;;;;1.17;87.93;99526.16;441700;118;922590;-73
2021/12/25 01:59:39;;;;;;;5.08;4.64;;;;;;;1.18;87.88;99529.69;441839;118;922505;-73
2021/12/25 02:00:49;;;;;;;5.95;5.15;;;;;;;1.19;87.85;99539.42;441803;118;930607;-73
2021/12/25 02:01:52;;;;;;;5.67;5.12;;;;;;;1.21;87.84;99526.66;442708;119;930565;-71
2021/12/25 02:02:58;;;;;;;5.51;4.97;;;;;;;1.22;87.84;99534.52;439709;118;922648;-73
2021/12/25 02:04:02;;;;;;;5.73;5.19;;;;;;;1.22;87.79;99537.20;441728;119;923742;-72
2021/12/25 02:05:06;;;;;;;6.68;5.36;;;;;;;1.23;87.78;99538.88;440658;120;922637;-72
2021/12/25 02:06:12;;;;;;;7.69;4.75;;;;;;;1.25;87.75;99541.39;440469;118;922478;-72
2021/12/25 02:07:16;;;;;;;8.48;5.61;;;;;;;1.25;87.71;99525.27;442398;118;923087;-71
2021/12/25 02:08:20;;;;;;;6.31;5.81;;;;;;;1.27;87.69;99530.47;434878;120;922930;-72
2021/12/25 02:09:23;;;;;;;5.83;4.91;;;;;;;1.29;87.66;99533.79;434527;118;922658;-70
2021/12/25 02:10:27;;;;;;;6.49;4.96;;;;;;;1.29;87.62;99531.94;439147;118;930669;-72
2021/12/25 02:11:30;;;;;;;5.87;5.29;;;;;;;1.30;87.55;99530.09;431465;121;922755;-71
2021/12/25 02:12:35;;;;;;;5.94;5.32;;;;;;;1.30;87.55;99532.78;445289;116;922631;-71
2021/12/25 02:13:42;;;;;;;6.99;5.85;;;;;;;1.32;87.55;99530.77;451287;115;922841;-72
2021/12/25 02:14:48;;;;;;;5.32;4.77;;;;;;;1.32;87.52;99534.28;457472;114;927354;-71
2021/12/25 02:15:54;;;;;;;6.40;5.81;;;;;;;1.32;87.50;99536.97;456928;114;922590;-72
2021/12/25 02:17:14;;;;;;;5.64;5.12;;;;;;;1.33;87.45;99535.09;448547;117;930699;-73
2021/12/25 02:18:22;;;;;;;6.53;5.88;;;;;;;1.33;87.47;99535.09;446812;114;922547;-72
2021/12/25 02:19:45;;;;;;;6.66;6.04;;;;;;;1.33;87.49;99537.78;455107;114;922664;-72
2021/12/25 02:21:21;;;;;;;5.53;5.03;;;;;;;1.33;87.43;99543.15;456139;114;922746;-71
2021/12/25 02:21:58;;;;;;;5.84;5.36;;;;;;;1.32;87.41;99536.13;443710;114;922938;-72
2021/12/25 02:23:04;;;;;;;5.96;5.31;;;;;;;1.32;87.44;99538.81;455907;114;922653;-72
2021/12/25 02:24:09;;;;;;;5.51;5.00;;;;;;;1.31;87.45;99537.98;457043;114;922758;-73
2021/12/25 02:25:13;;;;;;;6.23;5.61;;;;;;;1.31;87.45;99537.98;458478;114;922521;-73
2021/12/25 02:26:18;;;;;;;5.56;5.05;;;;;;;1.31;87.46;99555.94;457362;114;922609;-71
2021/12/25 02:27:21;;;;;;;6.14;5.62;;;;;;;1.31;87.47;99547.88;456323;114;922574;-72
2021/12/25 02:28:26;;;;;;;5.89;5.28;;;;;;;1.32;87.43;99552.24;455877;114;924066;-72
2021/12/25 02:29:29;;;;;;;5.81;5.32;;;;;;;1.32;87.40;99541.50;456250;114;923000;-72
2021/12/25 02:30:34;;;;;;;6.32;5.28;;;;;;;1.31;87.37;99534.45;455997;114;922585;-72
2021/12/25 02:31:37;;;;;;;5.91;5.36;;;;;;;1.31;87.39;99534.45;454836;114;922565;-72
2021/12/25 02:32:45;;;;;;;5.68;5.16;;;;;;;1.31;87.41;99531.77;458823;114;930539;-72
2021/12/25 02:33:48;;;;;;;5.29;4.79;;;;;;;1.32;87.41;99534.28;456227;114;930644;-69
2021/12/25 02:34:51;;;;;;;5.65;5.12;;;;;;;1.33;87.40;99529.72;456683;114;922761;-72
2021/12/25 02:35:55;;;;;;;6.72;4.83;;;;;;;1.33;87.36;99535.09;455390;114;930551;-72
2021/12/25 02:36:58;;;;;;;5.72;5.11;;;;;;;1.33;87.32;99535.09;456246;115;922483;-73
2021/12/25 02:38:03;;;;;;;5.64;5.14;;;;;;;1.33;87.29;99540.46;455541;114;922910;-72
2021/12/25 02:39:06;;;;;;;5.93;5.36;;;;;;;1.33;87.34;99541.30;458088;114;930523;-71
2021/12/25 02:40:13;;;;;;;7.19;5.75;;;;;;;1.34;87.33;99536.77;453660;114;930611;-72
2021/12/25 02:41:17;;;;;;;5.73;5.21;;;;;;;1.34;87.27;99537.60;457812;114;922991;-72
2021/12/25 02:42:21;;;;;;;6.01;5.38;;;;;;;1.33;87.21;99541.30;456426;114;922663;-72
2021/12/25 02:43:24;;;;;;;9.04;5.61;;;;;;;1.34;87.17;99542.14;456267;115;923537;-72
2021/12/25 02:44:28;;;;;;;5.87;5.37;;;;;;;1.34;87.18;99536.77;457024;114;922561;-72
2021/12/25 02:45:31;;;;;;;6.69;5.99;;;;;;;1.33;87.19;99538.61;456094;114;930531;-72
2021/12/25 02:46:35;;;;;;;6.76;5.94;;;;;;;1.34;87.17;99528.71;457016;114;930309;-71
2021/12/25 02:47:42;;;;;;;5.71;5.19;;;;;;;1.34;87.15;99526.02;454864;114;930655;-72
2021/12/25 02:48:46;;;;;;;6.50;5.81;;;;;;;1.35;87.13;99530.38;453964;115;922691;-72
2021/12/25 02:49:51;;;;;;;5.48;4.91;;;;;;;1.35;87.08;99543.81;455535;114;923049;-72
2021/12/25 02:50:54;;;;;;;6.30;5.69;;;;;;;1.34;87.07;99542.97;456130;114;930512;-72
2021/12/25 02:51:58;;;;;;;5.07;4.69;;;;;;;1.35;87.07;99541.97;456056;114;922765;-72
2021/12/25 02:53:04;;;;;;;5.86;5.31;;;;;;;1.35;87.03;99551.87;457604;114;930605;-73
2021/12/25 02:54:08;;;;;;;6.97;5.73;;;;;;;1.34;87.02;99548.34;455118;114;930621;-70
2021/12/25 02:55:12;;;;;;;5.33;4.83;;;;;;;1.35;87.03;99543.81;454799;114;922530;-72
2021/12/25 02:56:17;;;;;;;5.80;5.22;;;;;;;1.36;87.04;99548.17;457190;114;922462;-73
2021/12/25 02:57:20;;;;;;;6.21;4.96;;;;;;;1.36;87.06;99551.70;456036;114;922972;-72
2021/12/25 02:58:24;;;;;;;6.29;5.76;;;;;;;1.35;86.96;99551.87;454700;114;930655;-73
2021/12/25 02:59:27;;;;;;;5.52;5.11;;;;;;;1.36;86.97;99557.06;456106;114;922524;-72
2021/12/25 03:00:36;;;;;;;6.41;5.63;;;;;;;1.36;86.95;99554.38;454589;114;930604;-73
2021/12/25 03:01:39;;;;;;;6.32;5.82;;;;;;;1.37;86.92;99552.53;454578;114;922630;-71
2021/12/25 03:02:43;;;;;;;6.09;5.56;;;;;;;1.38;86.95;99548.84;454529;114;922777;-70
2021/12/25 03:03:47;;;;;;;5.60;5.12;;;;;;;1.37;86.95;99555.22;456206;115;930639;-71
2021/12/25 03:04:50;;;;;;;6.33;5.78;;;;;;;1.37;86.94;99547.16;457661;114;923001;-72
2021/12/25 03:05:54;;;;;;;6.06;5.54;;;;;;;1.38;86.93;99546.16;455210;114;923148;-72
2021/12/25 03:06:57;;;;;;;6.54;6.03;;;;;;;1.37;86.90;99545.31;456362;114;922745;-69
2021/12/25 03:08:02;;;;;;;6.78;6.17;;;;;;;1.39;86.88;99561.22;457153;114;924198;-71
2021/12/25 03:09:07;;;;;;;6.41;5.89;;;;;;;1.37;86.88;99566.80;455262;114;922639;-71
2021/12/25 03:10:13;;;;;;;6.71;6.14;;;;;;;1.37;86.89;99563.28;455059;114;922932;-73
2021/12/25 03:11:16;;;;;;;5.56;5.06;;;;;;;1.37;86.89;99565.96;456459;114;922637;-71
2021/12/25 03:12:29;;;;;;;5.63;5.19;;;;;;;1.37;86.90;99569.48;456883;114;922645;-72
2021/12/25 03:13:41;;;;;;;5.98;5.48;;;;;;;1.37;86.92;99568.64;455502;114;922664;-73
2021/12/25 03:16:08;;;;;;;6.98;5.34;;;;;;;1.38;86.87;99570.33;454424;114;922599;-73
2021/12/25 03:17:11;;;;;;;5.77;5.32;;;;;;;1.37;86.88;99574.86;453159;114;922731;-72
2021/12/25 03:18:17;;;;;;;6.67;5.21;;;;;;;1.37;86.88;99574.02;453350;116;923204;-72
2021/12/25 03:19:27;;;;;;;5.84;5.17;;;;;;;1.38;86.85;99573.81;454087;114;922543;-72
2021/12/25 03:20:26;;;;;;;6.57;5.97;;;;;;;1.38;86.85;99573.01;453703;115;922647;-72
2021/12/25 03:21:29;;;;;;;5.71;4.86;;;;;;;1.39;86.86;99571.97;452667;115;922821;-73
2021/12/25 03:22:33;;;;;;;7.39;6.10;;;;;;;1.38;86.82;99573.81;454198;116;930522;-72
2021/12/25 03:23:38;;;;;;;6.86;6.28;;;;;;;1.37;86.82;99574.86;454138;115;923003;-72
2021/12/25 03:24:41;;;;;;;6.99;6.34;;;;;;;1.36;86.79;99566.97;452596;115;922570;-72
2021/12/25 03:25:46;;;;;;;6.51;5.76;;;;;;;1.36;86.79;99572.34;453098;116;922652;-72
2021/12/25 03:26:52;;;;;;;6.67;6.07;;;;;;;1.36;86.76;99572.34;453017;115;922455;-74
2021/12/25 03:27:56;;;;;;;7.43;6.31;;;;;;;1.35;86.74;99567.98;453505;116;923001;-72
2021/12/25 03:29:03;;;;;;;6.41;5.86;;;;;;;1.34;86.75;99579.73;454240;115;922494;-72
2021/12/25 03:30:06;;;;;;;6.16;5.57;;;;;;;1.34;86.77;99579.73;453157;114;923006;-70
2021/12/25 03:31:17;;;;;;;5.91;5.30;;;;;;;1.34;86.72;99582.42;453739;116;922663;-72
2021/12/25 03:32:21;;;;;;;5.05;4.53;;;;;;;1.33;86.73;99589.63;453529;115;923171;-71
2021/12/25 03:33:24;;;;;;;6.27;5.60;;;;;;;1.33;86.66;99584.27;453505;114;923172;-72
2021/12/25 03:34:28;;;;;;;5.84;5.33;;;;;;;1.33;86.70;99580.74;457861;115;922553;-72
2021/12/25 03:35:33;;;;;;;6.81;6.09;;;;;;;1.33;86.69;99586.95;458502;115;922693;-72
2021/12/25 03:36:36;;;;;;;6.05;5.56;;;;;;;1.33;86.70;99583.42;453745;115;923097;-71
2021/12/25 03:37:40;;;;;;;6.91;6.03;;;;;;;1.33;86.67;99578.89;453195;116;922602;-73
2021/12/25 03:38:44;;;;;;;6.67;6.06;;;;;;;1.35;86.74;99579.56;453159;114;922625;-71
2021/12/25 03:39:48;;;;;;;6.82;5.97;;;;;;;1.35;86.74;99579.56;453945;116;930589;-71
2021/12/25 03:40:52;;;;;;;6.14;5.58;;;;;;;1.35;86.65;99581.41;451936;115;923113;-72
2021/12/25 03:41:57;;;;;;;6.48;5.90;;;;;;;1.37;86.64;99579.39;453661;114;922557;-72
2021/12/25 03:43:00;;;;;;;6.82;6.28;;;;;;;1.39;86.62;99580.02;452751;116;930571;-71
2021/12/25 03:44:04;;;;;;;6.62;6.02;;;;;;;1.38;86.60;99586.44;453859;115;922502;-71
2021/12/25 03:45:08;;;;;;;6.29;5.68;;;;;;;1.39;86.57;99590.77;452238;116;922488;-71
2021/12/25 03:46:13;;;;;;;7.18;6.38;;;;;;;1.40;86.55;99587.07;453345;116;922941;-72
2021/12/25 03:47:34;;;;;;;6.84;6.24;;;;;;;1.41;86.54;99599.49;453157;114;930478;-71
2021/12/25 03:53:07;;;;;;;7.26;6.59;;;;;;;1.40;86.52;99605.88;437815;119;923065;-72
2021/12/25 03:57:34;;;;;;;6.94;6.30;;;;;;;1.40;86.46;99609.39;453140;115;922903;-73
2021/12/25 03:58:36;;;;;;;7.62;6.91;;;;;;;1.38;86.49;99603.36;453900;115;922608;-71
2021/12/25 03:59:39;;;;;;;7.16;6.60;;;;;;;1.38;86.51;99611.41;454105;115;923190;-73
2021/12/25 04:00:44;;;;;;;6.36;5.82;;;;;;;1.37;86.51;99603.56;453243;115;922669;-72
2021/12/25 04:01:55;;;;;;;6.85;6.32;;;;;;;1.37;86.48;99603.56;453579;116;922585;-72
2021/12/25 04:02:57;;;;;;;6.85;6.26;;;;;;;1.37;86.50;99595.50;453738;115;923736;-72
2021/12/25 04:04:15;;;;;;;6.69;6.18;;;;;;;1.37;86.53;99592.81;453510;115;922489;-72
2021/12/25 04:05:19;;;;;;;6.56;6.00;;;;;;;1.38;86.55;99587.24;452340;116;922540;-72
2021/12/25 04:06:22;;;;;;;6.67;6.01;;;;;;;1.39;86.55;99588.08;453957;115;923441;-72
2021/12/25 04:07:59;;;;;;;6.88;6.16;;;;;;;1.39;86.54;99588.08;453103;115;922563;-73
2021/12/25 04:08:46;;;;;;;6.35;5.75;;;;;;;1.39;86.53;99594.30;449474;115;930678;-73
2021/12/25 04:09:50;;;;;;;7.01;6.39;;;;;;;1.39;86.48;99594.30;454150;115;922697;-71
2021/12/25 04:11:01;;;;;;;6.65;6.05;;;;;;;1.40;86.47;99587.07;453884;116;922553;-72
2021/12/25 04:12:05;;;;;;;6.96;6.34;;;;;;;1.40;86.48;99587.91;453736;115;922881;-71
2021/12/25 04:13:12;;;;;;;6.68;6.11;;;;;;;1.41;86.47;99588.75;452459;114;922637;-72
2021/12/25 04:14:16;;;;;;;7.18;6.59;;;;;;;1.40;86.44;99590.59;453084;116;923088;-72
2021/12/25 04:15:19;;;;;;;7.67;6.21;;;;;;;1.40;86.37;99590.59;452938;114;922978;-71
2021/12/25 04:16:26;;;;;;;8.28;6.76;;;;;;;1.40;86.44;99587.91;453549;114;922563;-72
2021/12/25 04:17:29;;;;;;;7.44;6.79;;;;;;;1.41;86.45;99588.75;455707;115;930604;-71
2021/12/25 04:18:33;;;;;;;12.21;6.66;;;;;;;1.42;86.45;99595.80;455996;114;923067;-72
2021/12/25 04:19:36;;;;;;;8.28;7.21;;;;;;;1.42;86.44;99588.58;456404;114;930598;-72
2021/12/25 04:20:41;;;;;;;7.59;6.94;;;;;;;1.43;86.41;99589.41;456612;114;923516;-72
2021/12/25 04:23:09;;;;;;;7.24;6.57;;;;;;;1.53;86.40;99588.15;473042;110;947035;-72
2021/12/25 04:24:10;;;;;;;7.19;6.55;;;;;;;1.43;86.38;99592.09;463276;113;922557;-71
2021/12/25 04:25:21;;;;;;;7.25;6.55;;;;;;;1.43;86.40;99594.78;464644;113;922595;-71
2021/12/25 04:26:22;;;;;;;7.54;6.30;;;;;;;1.44;86.39;99596.43;456455;116;922791;-72
2021/12/25 04:27:25;;;;;;;6.96;6.14;;;;;;;1.43;86.38;99584.05;456760;113;923350;-72
2021/12/25 04:28:47;;;;;;;7.51;6.83;;;;;;;1.43;86.35;99579.51;455592;113;922633;-72
2021/12/25 04:29:51;;;;;;;7.32;6.61;;;;;;;1.43;86.34;99581.36;447127;117;922730;-71
2021/12/25 04:31:22;;;;;;;7.47;6.76;;;;;;;1.44;86.29;99585.69;447416;116;923076;-71
2021/12/25 04:42:45;;;;;;;9.19;7.92;;;;;;;1.40;86.27;99601.34;454809;113;923409;-71
2021/12/25 04:42:55;;;;;;;6.73;6.12;;;;;;;1.32;86.38;99606.79;455910;113;922646;-70
2021/12/25 05:04:31;;;;;;;8.31;7.46;;;;;;;1.22;86.48;99585.52;455822;115;922424;-74
2021/12/25 05:05:45;;;;;;;8.19;7.04;;;;;;;1.22;86.52;99582.00;455600;113;922595;-72
2021/12/25 05:06:53;;;;;;;8.35;7.20;;;;;;;1.22;86.57;99584.69;452974;113;923009;-72
2021/12/25 05:07:56;;;;;;;8.00;7.22;;;;;;;1.23;86.51;99589.05;456706;113;922409;-73
2021/12/25 05:09:00;;;;;;;7.70;7.03;;;;;;;1.23;86.52;99597.10;457704;115;922336;-72
2021/12/25 05:10:04;;;;;;;8.74;7.89;;;;;;;1.22;86.55;99598.95;456866;115;922413;-73
2021/12/25 05:11:08;;;;;;;8.39;7.69;;;;;;;1.23;86.53;99602.47;455089;115;922532;-72
2021/12/25 05:12:12;;;;;;;7.68;6.98;;;;;;;1.23;86.55;99600.62;453753;114;922475;-72
2021/12/25 05:13:15;;;;;;;8.10;7.29;;;;;;;1.26;86.56;99604.81;457620;115;922329;-72
2021/12/25 05:14:19;;;;;;;9.77;7.37;;;;;;;1.29;86.52;99606.29;456503;113;930931;-72
2021/12/25 05:15:22;;;;;;;7.98;7.23;;;;;;;1.30;86.52;99607.97;456090;113;930502;-72
2021/12/25 05:16:26;;;;;;;8.58;7.78;;;;;;;1.31;86.52;99618.54;457030;114;922533;-74
2021/12/25 05:17:29;;;;;;;8.19;7.27;;;;;;;1.33;86.48;99616.48;456355;113;922534;-73
2021/12/25 05:18:33;;;;;;;7.72;7.01;;;;;;;1.33;86.41;99623.70;456947;114;922262;-71
2021/12/25 05:19:36;;;;;;;9.15;7.43;;;;;;;1.33;86.39;99626.39;456666;115;922518;-71
2021/12/25 05:20:40;;;;;;;7.39;6.74;;;;;;;1.33;86.38;99624.55;457770;113;923388;-72
2021/12/25 05:21:44;;;;;;;7.62;6.85;;;;;;;1.34;86.32;99633.44;447503;117;923708;-73
2021/12/25 05:22:47;;;;;;;7.59;6.88;;;;;;;1.34;86.29;99638.81;450357;113;922600;-74
2021/12/25 05:23:51;;;;;;;9.39;7.38;;;;;;;1.34;86.27;99626.22;459703;114;923387;-72
2021/12/25 05:24:54;;;;;;;8.21;7.53;;;;;;;1.33;86.24;99623.70;452220;115;922265;-73
2021/12/25 05:25:58;;;;;;;7.88;6.97;;;;;;;1.34;86.24;99614.64;451338;114;927126;-72
2021/12/25 05:27:01;;;;;;;8.74;7.08;;;;;;;1.34;86.17;99612.80;458148;113;922605;-71
2021/12/25 05:28:05;;;;;;;8.95;8.03;;;;;;;1.34;86.17;99610.11;458724;113;922253;-71
2021/12/25 05:29:08;;;;;;;8.88;8.11;;;;;;;1.34;86.14;99611.95;459320;115;922785;-71
2021/12/25 05:30:13;;;;;;;8.51;7.62;;;;;;;1.35;86.13;99602.89;459145;115;922334;-71
2021/12/25 05:31:21;;;;;;;8.24;7.48;;;;;;;1.34;86.17;99599.37;455296;114;922655;-72
2021/12/25 05:32:38;;;;;;;8.52;7.69;;;;;;;1.36;86.13;99596.52;435641;121;922609;-73
2021/12/25 05:33:59;;;;;;;9.42;8.42;;;;;;;1.36;86.12;99599.20;450428;114;923078;-72
2021/12/25 05:35:04;;;;;;;8.62;7.76;;;;;;;1.35;86.09;99598.36;456598;115;922446;-72
2021/12/25 05:36:10;;;;;;;8.96;8.00;;;;;;;1.34;86.17;99598.53;457353;114;922558;-72
2021/12/25 05:37:18;;;;;;;10.04;7.86;;;;;;;1.34;86.11;99596.69;449619;116;922588;-72
2021/12/25 05:38:28;;;;;;;9.19;8.41;;;;;;;1.44;86.11;99599.12;475683;109;947176;-72
2021/12/25 05:39:33;;;;;;;11.50;7.75;;;;;;;1.33;86.06;99595.00;466355;112;922481;-71
2021/12/25 05:40:37;;;;;;;8.39;7.64;;;;;;;1.32;86.03;99593.36;464225;112;922401;-72
2021/12/25 05:41:41;;;;;;;13.19;7.94;;;;;;;1.32;85.96;99596.05;462208;113;922641;-71
2021/12/25 05:42:46;;;;;;;8.82;8.01;;;;;;;1.31;85.98;99591.69;461997;113;930528;-72
2021/12/25 05:43:50;;;;;;;9.44;8.29;;;;;;;1.31;86.06;99590.84;463169;113;922517;-71
2021/12/25 05:44:56;;;;;;;10.16;8.11;;;;;;;1.32;86.09;99592.52;448985;116;922403;-70
2021/12/25 05:46:01;;;;;;;8.45;7.66;;;;;;;1.32;86.07;99592.52;462384;113;922529;-73
2021/12/25 05:47:07;;;;;;;8.47;7.59;;;;;;;1.32;86.04;99587.98;460426;113;922532;-74
2021/12/25 05:48:12;;;;;;;9.01;7.95;;;;;;;1.31;86.00;99585.48;461476;113;922484;-72
2021/12/25 05:49:27;;;;;;;9.24;8.42;;;;;;;1.30;85.94;99591.86;459666;113;922615;-72
2021/12/25 05:50:37;;;;;;;9.89;8.37;;;;;;;1.28;85.92;99592.03;429717;121;923481;-72
2021/12/25 05:51:54;;;;;;;8.79;7.96;;;;;;;1.26;85.91;99599.45;461036;113;923425;-72
2021/12/25 05:53:06;;;;;;;8.47;7.68;;;;;;;1.25;86.02;99587.87;462623;113;922755;-72
2021/12/25 05:54:23;;;;;;;9.52;8.57;;;;;;;1.23;86.06;99584.52;439589;118;922795;-72
2021/12/25 05:55:28;;;;;;;12.32;9.31;;;;;;;1.24;86.11;99588.87;445624;114;922724;-73
2021/12/25 05:56:39;;;;;;;9.18;8.24;;;;;;;1.23;86.15;99579.14;460046;113;922512;-72
2021/12/25 05:57:53;;;;;;;9.55;8.66;;;;;;;1.23;86.29;99575.63;460714;113;922635;-71
2021/12/25 05:59:04;;;;;;;9.71;8.71;;;;;;;1.24;86.24;99580.82;446451;118;923500;-73
2021/12/25 06:00:16;;;;;;;10.55;9.49;;;;;;;1.23;86.28;99589.88;450097;115;923597;-73
2021/12/25 06:01:22;;;;;;;9.57;8.47;;;;;;;1.24;86.32;99586.19;452495;113;922609;-72
2021/12/25 06:02:26;;;;;;;10.19;9.28;;;;;;;1.26;86.38;99591.39;462046;113;923002;-73
2021/12/25 06:03:30;;;;;;;9.73;8.77;;;;;;;1.27;86.37;99590.34;461584;113;930506;-71
2021/12/25 06:04:34;;;;;;;9.79;8.89;;;;;;;1.29;86.37;99595.55;462274;113;922815;-72
2021/12/25 06:05:39;;;;;;;10.82;8.58;;;;;;;1.31;86.39;99590.84;453681;115;930720;-71
2021/12/25 06:06:42;;;;;;;10.16;8.59;;;;;;;1.34;86.38;99599.37;454507;114;922775;-73
2021/12/25 06:07:46;;;;;;;11.73;9.26;;;;;;;1.36;86.29;99605.41;463059;113;930977;-70
2021/12/25 06:08:49;;;;;;;10.32;9.21;;;;;;;1.38;86.25;99613.30;461618;113;930498;-72
2021/12/25 06:09:52;;;;;;;11.58;10.41;;;;;;;1.38;86.23;99611.41;460114;113;922567;-71
2021/12/25 06:10:56;;;;;;;10.62;9.68;;;;;;;1.40;86.24;99614.77;461002;112;930053;-73
2021/12/25 06:11:59;;;;;;;14.06;11.08;;;;;;;1.43;86.14;99610.91;462538;113;930212;-73
2021/12/25 06:13:03;;;;;;;12.07;10.82;;;;;;;1.44;86.09;99608.02;461646;114;930352;-70
2021/12/25 06:14:11;;;;;;;13.84;12.09;;;;;;;1.45;86.01;99608.84;460779;113;923072;-71
2021/12/25 06:15:20;;;;;;;12.63;10.95;;;;;;;1.47;86.03;99604.14;437155;120;922888;-73
2021/12/25 06:16:26;;;;;;;11.25;10.19;;;;;;;1.49;86.03;99612.87;452953;113;922773;-70
2021/12/25 06:17:37;;;;;;;12.03;10.89;;;;;;;1.52;86.01;99607.13;440943;118;922714;-73
2021/12/25 06:18:42;;;;;;;13.02;11.72;;;;;;;1.53;85.93;99612.33;459651;114;922512;-71